createdAt,value
2019-04-14T00:00:14.204Z,929.09
2019-04-14T00:00:33.615Z,929.08
2019-04-14T00:00:51.442Z,929.07
2019-04-14T00:01:08.539Z,929.11
2019-04-14T00:01:26.084Z,929.07
2019-04-14T00:01:43.378Z,929.08
2019-04-14T00:02:00.907Z,929.05
2019-04-14T00:02:18.465Z,929.07
2019-04-14T00:02:35.818Z,929.07
2019-04-14T00:02:53.113Z,929.06
2019-04-14T00:03:08.640Z,929.09
2019-04-14T00:03:26.077Z,929.11
2019-04-14T00:03:45.331Z,929.09
2019-04-14T00:04:00.800Z,929.09
2019-04-14T00:04:18.195Z,929.02
2019-04-14T00:04:36.535Z,929.05
2019-04-14T00:04:55.052Z,929.05
2019-04-14T00:05:12.459Z,929.04
2019-04-14T00:05:32.594Z,929.02
2019-04-14T00:05:49.685Z,929.02
2019-04-14T00:06:08.994Z,929.06
2019-04-14T00:06:26.328Z,929.05
2019-04-14T00:06:42.533Z,929.01
2019-04-14T00:07:01.428Z,928.99
2019-04-14T00:07:20.811Z,929.01
2019-04-14T00:07:36.370Z,929
2019-04-14T00:07:53.793Z,929.04
2019-04-14T00:08:13.306Z,928.96
2019-04-14T00:08:32.637Z,929
2019-04-14T00:08:50.034Z,929
2019-04-14T00:09:07.474Z,929.01
2019-04-14T00:09:25.148Z,929.04
2019-04-14T00:09:43.081Z,929.02
2019-04-14T00:10:00.630Z,929.01
2019-04-14T00:10:18.120Z,929.03
2019-04-14T00:10:35.402Z,929.06
2019-04-14T00:10:52.876Z,929.02
2019-04-14T00:11:10.339Z,929.03
2019-04-14T00:11:27.998Z,929.07
2019-04-14T00:11:45.874Z,929.09
2019-04-14T00:12:06.108Z,929.07
2019-04-14T00:12:25.064Z,929.05
2019-04-14T00:12:42.643Z,929.08
2019-04-14T00:13:00.011Z,929.06
2019-04-14T00:13:17.399Z,929.07
2019-04-14T00:13:34.896Z,929.13
2019-04-14T00:13:52.413Z,929.1
2019-04-14T00:14:11.695Z,929.08
2019-04-14T00:14:29.260Z,929.13
2019-04-14T00:14:46.668Z,929.11
2019-04-14T00:15:04.464Z,929.13
2019-04-14T00:15:53.205Z,929.09
2019-04-14T00:16:09.562Z,929.13
2019-04-14T00:16:27.003Z,929.17
2019-04-14T00:16:44.492Z,929.14
2019-04-14T00:17:02.088Z,929.16
2019-04-14T00:17:21.520Z,929.15
2019-04-14T00:17:36.927Z,929.17
2019-04-14T00:17:52.536Z,929.15
2019-04-14T00:18:09.664Z,929.16
2019-04-14T00:18:25.106Z,929.18
2019-04-14T00:18:42.604Z,929.19
2019-04-14T00:19:00.868Z,929.17
2019-04-14T00:19:19.222Z,929.22
2019-04-14T00:19:36.897Z,929.19
2019-04-14T00:19:54.416Z,929.19
2019-04-14T00:20:11.549Z,929.17
2019-04-14T00:20:27.165Z,929.19
2019-04-14T00:20:44.747Z,929.18
2019-04-14T00:21:02.235Z,929.22
2019-04-14T00:21:21.465Z,929.22
2019-04-14T00:21:38.858Z,929.21
2019-04-14T00:21:54.395Z,929.24
2019-04-14T00:22:11.555Z,929.25
2019-04-14T00:22:30.603Z,929.23
2019-04-14T00:22:46.799Z,929.26
2019-04-14T00:23:04.366Z,929.23
2019-04-14T00:23:21.539Z,929.28
2019-04-14T00:23:36.886Z,929.3
2019-04-14T00:23:52.228Z,929.29
2019-04-14T00:24:09.200Z,929.26
2019-04-14T00:24:27.048Z,929.26
2019-04-14T00:24:44.553Z,929.28
2019-04-14T00:25:01.064Z,929.24
2019-04-14T00:25:19.431Z,929.28
2019-04-14T00:25:36.902Z,929.28
2019-04-14T00:25:54.376Z,929.26
2019-04-14T00:26:11.354Z,929.32
2019-04-14T00:26:29.278Z,929.3
2019-04-14T00:26:46.683Z,929.33
2019-04-14T00:27:04.207Z,929.34
2019-04-14T00:27:23.389Z,929.35
2019-04-14T00:27:40.740Z,929.32
2019-04-14T00:28:00.490Z,929.35
2019-04-14T00:28:16.338Z,929.37
2019-04-14T00:28:31.437Z,929.34
2019-04-14T00:28:46.874Z,929.3
2019-04-14T00:29:04.572Z,929.43
2019-04-14T00:29:21.722Z,929.34
2019-04-14T00:29:37.844Z,929.35
2019-04-14T00:29:54.553Z,929.34
2019-04-14T00:30:11.839Z,929.31
2019-04-14T00:30:29.454Z,929.31
2019-04-14T00:30:46.906Z,929.33
2019-04-14T00:31:04.471Z,929.33
2019-04-14T00:31:21.618Z,929.3
2019-04-14T00:31:39.101Z,929.25
2019-04-14T00:31:58.775Z,929.28
2019-04-14T00:32:16.243Z,929.33
2019-04-14T00:32:35.428Z,929.31
2019-04-14T00:32:53.033Z,929.29
2019-04-14T00:33:08.445Z,929.3
2019-04-14T00:33:25.709Z,929.27
2019-04-14T00:33:43.171Z,929.28
2019-04-14T00:34:00.593Z,929.28
2019-04-14T00:34:18.063Z,929.3
2019-04-14T00:34:36.043Z,929.25
2019-04-14T00:34:54.902Z,929.28
2019-04-14T00:35:12.367Z,929.28
2019-04-14T00:35:29.789Z,929.28
2019-04-14T00:35:49.433Z,929.28
2019-04-14T00:36:08.644Z,929.26
2019-04-14T00:36:26.063Z,929.31
2019-04-14T00:36:41.535Z,929.29
2019-04-14T00:36:59.816Z,929.28
2019-04-14T00:37:18.409Z,929.32
2019-04-14T00:37:35.765Z,929.26
2019-04-14T00:37:53.306Z,929.27
2019-04-14T00:38:11.601Z,929.26
2019-04-14T00:38:30.125Z,929.27
2019-04-14T00:38:47.772Z,929.26
2019-04-14T00:39:03.163Z,929.23
2019-04-14T00:39:18.294Z,929.27
2019-04-14T00:39:35.702Z,929.28
2019-04-14T00:39:51.122Z,929.29
2019-04-14T00:40:10.477Z,929.25
2019-04-14T00:40:30.988Z,929.25
2019-04-14T00:40:49.686Z,929.29
2019-04-14T00:41:07.164Z,929.33
2019-04-14T00:41:44.701Z,929.34
2019-04-14T00:42:11.276Z,929.36
2019-04-14T00:42:27.710Z,929.35
2019-04-14T00:42:44.906Z,929.37
2019-04-14T00:43:00.564Z,929.38
2019-04-14T00:43:19.927Z,929.35
2019-04-14T00:43:37.406Z,929.4
2019-04-14T00:43:54.899Z,929.37
2019-04-14T00:44:12.419Z,929.34
2019-04-14T00:44:27.620Z,929.41
2019-04-14T00:44:44.916Z,929.39
2019-04-14T00:45:02.805Z,929.4
2019-04-14T00:45:41.422Z,929.39
2019-04-14T00:46:10.000Z,929.38
2019-04-14T00:46:27.536Z,929.4
2019-04-14T00:46:47.357Z,929.37
2019-04-14T00:47:04.965Z,929.37
2019-04-14T00:47:24.535Z,929.37
2019-04-14T00:48:09.563Z,929.36
2019-04-14T00:48:32.010Z,929.36
2019-04-14T00:48:49.532Z,929.37
2019-04-14T00:49:07.029Z,929.38
2019-04-14T00:49:24.675Z,929.38
2019-04-14T00:49:43.967Z,929.39
2019-04-14T00:50:01.578Z,929.36
2019-04-14T00:50:18.903Z,929.37
2019-04-14T00:50:36.544Z,929.4
2019-04-14T00:50:55.937Z,929.4
2019-04-14T00:51:13.302Z,929.4
2019-04-14T00:51:30.913Z,929.42
2019-04-14T00:51:50.706Z,929.42
2019-04-14T00:52:10.001Z,929.42
2019-04-14T00:52:27.603Z,929.45
2019-04-14T00:52:43.428Z,929.44
2019-04-14T00:52:59.838Z,929.44
2019-04-14T00:53:18.288Z,929.46
2019-04-14T00:53:35.999Z,929.46
2019-04-14T00:53:53.505Z,929.48
2019-04-14T00:54:10.946Z,929.49
2019-04-14T00:54:30.380Z,929.47
2019-04-14T00:54:47.688Z,929.46
2019-04-14T00:55:03.259Z,929.51
2019-04-14T00:55:20.457Z,929.51
2019-04-14T00:55:37.882Z,929.49
2019-04-14T00:55:55.352Z,929.5
2019-04-14T00:56:11.507Z,929.54
2019-04-14T00:56:30.032Z,929.55
2019-04-14T00:56:46.212Z,929.52
2019-04-14T00:57:03.140Z,929.52
2019-04-14T00:57:20.131Z,929.53
2019-04-14T00:57:35.506Z,929.52
2019-04-14T00:57:52.969Z,929.53
2019-04-14T00:58:08.843Z,929.52
2019-04-14T00:58:27.865Z,929.48
2019-04-14T00:58:45.141Z,929.53
2019-04-14T00:59:02.781Z,929.51
2019-04-14T00:59:20.043Z,929.5
2019-04-14T00:59:35.442Z,929.47
2019-04-14T00:59:53.054Z,929.54
2019-04-14T01:00:12.685Z,929.51
2019-04-14T01:00:31.909Z,929.54
2019-04-14T01:00:50.046Z,929.5
2019-04-14T01:01:06.915Z,929.5
2019-04-14T01:01:24.349Z,929.5
2019-04-14T01:01:41.612Z,929.48
2019-04-14T01:01:59.069Z,929.51
2019-04-14T01:02:16.665Z,929.51
2019-04-14T01:02:33.968Z,929.47
2019-04-14T01:02:49.359Z,929.51
2019-04-14T01:03:06.903Z,929.47
2019-04-14T01:03:23.055Z,929.46
2019-04-14T01:03:41.548Z,929.48
2019-04-14T01:03:59.049Z,929.47
2019-04-14T01:04:16.469Z,929.48
2019-04-14T01:04:33.739Z,929.46
2019-04-14T01:04:51.308Z,929.48
2019-04-14T01:05:08.807Z,929.44
2019-04-14T01:05:26.246Z,929.48
2019-04-14T01:05:48.101Z,929.43
2019-04-14T01:06:07.512Z,929.43
2019-04-14T01:06:25.021Z,929.44
2019-04-14T01:06:42.535Z,929.4
2019-04-14T01:07:00.080Z,929.47
2019-04-14T01:07:19.410Z,929.4
2019-04-14T01:07:36.933Z,929.41
2019-04-14T01:07:54.329Z,929.39
2019-04-14T01:08:11.982Z,929.38
2019-04-14T01:08:31.360Z,929.4
2019-04-14T01:08:48.863Z,929.39
2019-04-14T01:09:06.366Z,929.42
2019-04-14T01:09:23.974Z,929.42
2019-04-14T01:09:42.262Z,929.39
2019-04-14T01:09:59.579Z,929.34
2019-04-14T01:10:16.998Z,929.34
2019-04-14T01:10:34.310Z,929.34
2019-04-14T01:10:51.850Z,929.32
2019-04-14T01:11:09.517Z,929.33
2019-04-14T01:11:27.071Z,929.36
2019-04-14T01:11:46.388Z,929.32
2019-04-14T01:12:03.800Z,929.32
2019-04-14T01:12:21.123Z,929.31
2019-04-14T01:12:38.742Z,929.29
2019-04-14T01:12:58.110Z,929.3
2019-04-14T01:13:20.003Z,929.3
2019-04-14T01:13:37.437Z,929.32
2019-04-14T01:13:55.011Z,929.28
2019-04-14T01:14:12.615Z,929.31
2019-04-14T01:14:31.905Z,929.28
2019-04-14T01:14:49.451Z,929.28
2019-04-14T01:15:07.079Z,929.26
2019-04-14T01:15:24.614Z,929.27
2019-04-14T01:16:17.358Z,929.25
2019-04-14T01:16:36.429Z,929.24
2019-04-14T01:16:53.797Z,929.24
2019-04-14T01:17:11.147Z,929.21
2019-04-14T01:17:28.662Z,929.25
2019-04-14T01:17:47.094Z,929.21
2019-04-14T01:18:03.549Z,929.23
2019-04-14T01:18:21.114Z,929.22
2019-04-14T01:18:38.633Z,929.23
2019-04-14T01:18:57.796Z,929.22
2019-04-14T01:19:15.498Z,929.23
2019-04-14T01:19:32.979Z,929.21
2019-04-14T01:19:50.607Z,929.24
2019-04-14T01:20:10.051Z,929.24
2019-04-14T01:20:27.426Z,929.23
2019-04-14T01:20:44.909Z,929.23
2019-04-14T01:21:02.487Z,929.23
2019-04-14T01:21:21.684Z,929.23
2019-04-14T01:21:39.102Z,929.25
2019-04-14T01:21:55.157Z,929.24
2019-04-14T01:22:11.930Z,929.28
2019-04-14T01:22:31.360Z,929.24
2019-04-14T01:22:48.740Z,929.27
2019-04-14T01:23:06.285Z,929.24
2019-04-14T01:23:23.700Z,929.27
2019-04-14T01:23:43.340Z,929.26
2019-04-14T01:24:00.934Z,929.2
2019-04-14T01:24:18.506Z,929.28
2019-04-14T01:24:35.952Z,929.26
2019-04-14T01:24:55.293Z,929.24
2019-04-14T01:25:12.750Z,929.28
2019-04-14T01:25:30.218Z,929.29
2019-04-14T01:25:47.685Z,929.24
2019-04-14T01:26:07.083Z,929.23
2019-04-14T01:26:22.478Z,929.24
2019-04-14T01:26:39.934Z,929.25
2019-04-14T01:26:59.448Z,929.21
2019-04-14T01:27:18.861Z,929.22
2019-04-14T01:27:36.245Z,929.21
2019-04-14T01:27:53.767Z,929.21
2019-04-14T01:28:11.283Z,929.2
2019-04-14T01:28:28.584Z,929.23
2019-04-14T01:28:46.109Z,929.23
2019-04-14T01:29:03.601Z,929.18
2019-04-14T01:29:23.233Z,929.2
2019-04-14T01:29:42.634Z,929.14
2019-04-14T01:30:00.223Z,929.17
2019-04-14T01:30:17.571Z,929.19
2019-04-14T01:30:35.078Z,929.21
2019-04-14T01:30:54.417Z,929.17
2019-04-14T01:31:11.916Z,929.17
2019-04-14T01:31:29.334Z,929.17
2019-04-14T01:31:47.103Z,929.16
2019-04-14T01:32:06.593Z,929.16
2019-04-14T01:32:23.973Z,929.16
2019-04-14T01:32:41.440Z,929.15
2019-04-14T01:32:58.883Z,929.13
2019-04-14T01:33:18.246Z,929.14
2019-04-14T01:33:34.270Z,929.19
2019-04-14T01:33:51.135Z,929.17
2019-04-14T01:34:10.732Z,929.16
2019-04-14T01:34:30.178Z,929.17
2019-04-14T01:34:47.601Z,929.16
2019-04-14T01:35:07.430Z,929.14
2019-04-14T01:35:24.852Z,929.18
2019-04-14T01:35:44.215Z,929.17
2019-04-14T01:36:01.675Z,929.18
2019-04-14T01:36:19.112Z,929.22
2019-04-14T01:36:36.648Z,929.21
2019-04-14T01:36:53.919Z,929.19
2019-04-14T01:37:11.461Z,929.19
2019-04-14T01:37:29.011Z,929.19
2019-04-14T01:37:46.402Z,929.19
2019-04-14T01:38:05.835Z,929.24
2019-04-14T01:38:23.265Z,929.23
2019-04-14T01:38:40.586Z,929.21
2019-04-14T01:38:58.129Z,929.24
2019-04-14T01:39:17.542Z,929.25
2019-04-14T01:39:34.915Z,929.25
2019-04-14T01:39:52.389Z,929.22
2019-04-14T01:40:09.923Z,929.24
2019-04-14T01:40:29.185Z,929.21
2019-04-14T01:40:46.570Z,929.2
2019-04-14T01:41:04.228Z,929.22
2019-04-14T01:41:21.675Z,929.23
2019-04-14T01:41:40.997Z,929.19
2019-04-14T01:41:58.249Z,929.22
2019-04-14T01:42:15.695Z,929.23
2019-04-14T01:42:33.395Z,929.21
2019-04-14T01:42:52.701Z,929.22
2019-04-14T01:43:10.182Z,929.22
2019-04-14T01:43:27.741Z,929.22
2019-04-14T01:43:45.207Z,929.21
2019-04-14T01:44:04.550Z,929.24
2019-04-14T01:44:21.980Z,929.24
2019-04-14T01:44:39.475Z,929.25
2019-04-14T01:44:57.030Z,929.26
2019-04-14T01:45:16.346Z,929.23
2019-04-14T01:45:33.789Z,929.23
2019-04-14T01:46:20.640Z,929.27
2019-04-14T01:46:43.387Z,929.24
2019-04-14T01:47:00.943Z,929.24
2019-04-14T01:47:18.084Z,929.25
2019-04-14T01:47:35.535Z,929.24
2019-04-14T01:47:53.299Z,929.29
2019-04-14T01:48:10.524Z,929.28
2019-04-14T01:48:27.825Z,929.3
2019-04-14T01:48:45.042Z,929.3
2019-04-14T01:49:02.849Z,929.28
2019-04-14T01:49:20.331Z,929.25
2019-04-14T01:49:37.602Z,929.29
2019-04-14T01:49:55.095Z,929.25
2019-04-14T01:50:12.418Z,929.28
2019-04-14T01:50:29.840Z,929.29
2019-04-14T01:50:45.162Z,929.3
2019-04-14T01:51:00.514Z,929.27
2019-04-14T01:51:17.771Z,929.31
2019-04-14T01:51:35.184Z,929.28
2019-04-14T01:51:50.611Z,929.3
2019-04-14T01:52:06.780Z,929.24
2019-04-14T01:52:23.169Z,929.26
2019-04-14T01:52:40.540Z,929.26
2019-04-14T01:52:56.767Z,929.27
2019-04-14T01:53:14.496Z,929.27
2019-04-14T01:53:31.416Z,929.25
2019-04-14T01:53:48.816Z,929.24
2019-04-14T01:54:07.009Z,929.26
2019-04-14T01:54:23.484Z,929.26
2019-04-14T01:54:40.662Z,929.27
2019-04-14T01:54:58.263Z,929.29
2019-04-14T01:55:17.648Z,929.25
2019-04-14T01:55:33.824Z,929.26
2019-04-14T01:55:50.490Z,929.28
2019-04-14T01:56:07.982Z,929.29
2019-04-14T01:56:25.104Z,929.26
2019-04-14T01:56:42.707Z,929.27
2019-04-14T01:57:00.220Z,929.29
2019-04-14T01:57:17.551Z,929.27
2019-04-14T01:57:32.861Z,929.24
2019-04-14T01:57:50.287Z,929.28
2019-04-14T01:58:07.838Z,929.27
2019-04-14T01:58:27.146Z,929.24
2019-04-14T01:58:44.685Z,929.24
2019-04-14T01:59:02.161Z,929.27
2019-04-14T01:59:18.074Z,929.28
2019-04-14T01:59:34.845Z,929.29
2019-04-14T01:59:52.444Z,929.28
2019-04-14T02:00:09.828Z,929.27
2019-04-14T02:00:29.115Z,929.25
2019-04-14T02:00:44.466Z,929.29
2019-04-14T02:01:01.835Z,929.28
2019-04-14T02:01:19.506Z,929.29
2019-04-14T02:01:36.730Z,929.28
2019-04-14T02:01:54.256Z,929.25
2019-04-14T02:02:11.855Z,929.27
2019-04-14T02:02:29.109Z,929.3
2019-04-14T02:02:44.302Z,929.24
2019-04-14T02:02:59.693Z,929.26
2019-04-14T02:03:18.057Z,929.26
2019-04-14T02:03:36.612Z,929.26
2019-04-14T02:03:54.088Z,929.28
2019-04-14T02:04:11.635Z,929.26
2019-04-14T02:04:28.810Z,929.27
2019-04-14T02:04:44.276Z,929.25
2019-04-14T02:05:01.786Z,929.24
2019-04-14T02:05:19.112Z,929.25
2019-04-14T02:05:36.408Z,929.26
2019-04-14T02:05:53.841Z,929.26
2019-04-14T02:06:11.405Z,929.27
2019-04-14T02:06:30.915Z,929.24
2019-04-14T02:06:50.535Z,929.26
2019-04-14T02:07:08.014Z,929.21
2019-04-14T02:07:25.522Z,929.23
2019-04-14T02:07:42.872Z,929.23
2019-04-14T02:08:02.315Z,929.21
2019-04-14T02:08:19.791Z,929.24
2019-04-14T02:08:37.195Z,929.23
2019-04-14T02:08:54.661Z,929.22
2019-04-14T02:09:13.989Z,929.21
2019-04-14T02:09:31.589Z,929.2
2019-04-14T02:09:48.903Z,929.22
2019-04-14T02:10:06.351Z,929.19
2019-04-14T02:10:23.835Z,929.18
2019-04-14T02:10:41.238Z,929.22
2019-04-14T02:10:57.202Z,929.22
2019-04-14T02:11:15.832Z,929.22
2019-04-14T02:11:33.420Z,929.22
2019-04-14T02:11:50.985Z,929.17
2019-04-14T02:12:08.417Z,929.22
2019-04-14T02:12:27.780Z,929.2
2019-04-14T02:12:45.217Z,929.21
2019-04-14T02:13:02.784Z,929.2
2019-04-14T02:13:20.320Z,929.18
2019-04-14T02:13:39.635Z,929.2
2019-04-14T02:13:55.675Z,929.23
2019-04-14T02:14:12.495Z,929.21
2019-04-14T02:14:30.112Z,929.2
2019-04-14T02:14:49.467Z,929.2
2019-04-14T02:15:06.895Z,929.21
2019-04-14T02:15:24.396Z,929.18
2019-04-14T02:15:42.026Z,929.2
2019-04-14T02:16:23.462Z,929.19
2019-04-14T02:17:06.373Z,929.22
2019-04-14T02:17:26.309Z,929.19
2019-04-14T02:17:41.674Z,929.18
2019-04-14T02:18:00.930Z,929.2
2019-04-14T02:18:18.493Z,929.19
2019-04-14T02:18:36.168Z,929.19
2019-04-14T02:18:58.604Z,929.16
2019-04-14T02:19:17.443Z,929.19
2019-04-14T02:19:37.117Z,929.18
2019-04-14T02:19:56.746Z,929.19
2019-04-14T02:20:16.311Z,929.16
2019-04-14T02:20:33.877Z,929.18
2019-04-14T02:20:53.469Z,929.14
2019-04-14T02:21:12.839Z,929.16
2019-04-14T02:21:32.362Z,929.12
2019-04-14T02:21:49.884Z,929.13
2019-04-14T02:22:07.313Z,929.14
2019-04-14T02:22:26.621Z,929.16
2019-04-14T02:22:41.917Z,929.12
2019-04-14T02:22:59.474Z,929.13
2019-04-14T02:23:17.072Z,929.16
2019-04-14T02:23:36.462Z,929.12
2019-04-14T02:23:53.978Z,929.14
2019-04-14T02:24:11.336Z,929.19
2019-04-14T02:24:28.842Z,929.15
2019-04-14T02:24:48.126Z,929.12
2019-04-14T02:25:05.648Z,929.13
2019-04-14T02:25:23.066Z,929.16
2019-04-14T02:25:40.669Z,929.12
2019-04-14T02:25:59.967Z,929.08
2019-04-14T02:26:17.625Z,929.07
2019-04-14T02:26:35.074Z,929.09
2019-04-14T02:26:52.609Z,929.09
2019-04-14T02:27:11.957Z,929.09
2019-04-14T02:27:29.639Z,929.06
2019-04-14T02:27:47.215Z,929.06
2019-04-14T02:28:04.756Z,929.07
2019-04-14T02:28:24.200Z,929.06
2019-04-14T02:28:41.781Z,929.06
2019-04-14T02:28:59.209Z,929.07
2019-04-14T02:29:16.803Z,929.08
2019-04-14T02:29:36.099Z,929.04
2019-04-14T02:29:53.800Z,929.08
2019-04-14T02:30:26.091Z,929.08
2019-04-14T02:32:32.288Z,929.07
2019-04-14T02:35:36.551Z,929.1
2019-04-14T02:39:05.816Z,929.12
2019-04-14T02:42:17.089Z,929.15
2019-04-14T02:45:18.906Z,929.21
2019-04-14T02:48:50.624Z,929.22
2019-04-14T02:51:39.735Z,929.12
2019-04-14T02:57:51.774Z,929.13
2019-04-14T03:00:57.967Z,929.12
2019-04-14T03:04:10.910Z,929.07
2019-04-14T03:07:14.046Z,929.03
2019-04-14T03:10:10.194Z,929.05
2019-04-14T03:13:12.849Z,929.05
2019-04-14T03:16:29.161Z,928.94
2019-04-14T03:22:55.129Z,928.92
2019-04-14T03:25:22.186Z,928.93
2019-04-14T03:28:17.141Z,928.88
2019-04-14T03:31:08.004Z,928.83
2019-04-14T03:39:45.725Z,928.65
2019-04-14T03:43:01.155Z,928.6
2019-04-14T03:46:33.099Z,928.54
2019-04-14T03:49:52.293Z,928.48
2019-04-14T03:53:05.508Z,928.51
2019-04-14T03:55:11.148Z,928.52
2019-04-14T03:56:11.141Z,928.5
2019-04-14T03:56:33.392Z,928.51
2019-04-14T03:56:48.909Z,928.5
2019-04-14T03:57:08.295Z,928.47
2019-04-14T03:57:27.092Z,928.49
2019-04-14T03:57:45.482Z,928.49
2019-04-14T03:58:03.506Z,928.51
2019-04-14T03:58:22.580Z,928.54
2019-04-14T03:58:42.052Z,928.49
2019-04-14T03:58:57.589Z,928.52
2019-04-14T03:59:15.165Z,928.49
2019-04-14T03:59:34.497Z,928.48
2019-04-14T03:59:52.076Z,928.52
2019-04-14T04:00:09.587Z,928.5
2019-04-14T04:00:27.037Z,928.46
2019-04-14T04:00:44.294Z,928.49
2019-04-14T04:01:03.985Z,928.5
2019-04-14T04:01:21.497Z,928.45
2019-04-14T04:01:37.727Z,928.46
2019-04-14T04:01:56.566Z,928.45
2019-04-14T04:02:13.898Z,928.45
2019-04-14T04:02:31.474Z,928.46
2019-04-14T04:02:48.796Z,928.45
2019-04-14T04:03:04.209Z,928.44
2019-04-14T04:03:21.738Z,928.46
2019-04-14T04:03:39.209Z,928.41
2019-04-14T04:03:58.498Z,928.44
2019-04-14T04:04:16.094Z,928.48
2019-04-14T04:04:32.212Z,928.46
2019-04-14T04:04:51.175Z,928.44
2019-04-14T04:05:08.514Z,928.46
2019-04-14T04:05:25.908Z,928.44
2019-04-14T04:05:43.429Z,928.45
2019-04-14T04:06:03.066Z,928.44
2019-04-14T04:06:22.377Z,928.44
2019-04-14T04:06:39.835Z,928.45
2019-04-14T04:06:57.455Z,928.42
2019-04-14T04:07:14.933Z,928.38
2019-04-14T04:07:34.283Z,928.43
2019-04-14T04:07:51.683Z,928.43
2019-04-14T04:08:09.251Z,928.42
2019-04-14T04:08:26.769Z,928.39
2019-04-14T04:08:44.104Z,928.43
2019-04-14T04:08:59.642Z,928.4
2019-04-14T04:09:17.093Z,928.39
2019-04-14T04:09:36.414Z,928.38
2019-04-14T04:09:51.940Z,928.38
2019-04-14T04:10:09.337Z,928.39
2019-04-14T04:10:25.315Z,928.38
2019-04-14T04:10:44.278Z,928.38
2019-04-14T04:11:01.873Z,928.38
2019-04-14T04:11:19.267Z,928.35
2019-04-14T04:11:38.912Z,928.38
2019-04-14T04:11:58.356Z,928.35
2019-04-14T04:12:15.934Z,928.35
2019-04-14T04:12:33.479Z,928.33
2019-04-14T04:12:51.107Z,928.36
2019-04-14T04:13:08.299Z,928.37
2019-04-14T04:13:25.815Z,928.33
2019-04-14T04:13:43.292Z,928.36
2019-04-14T04:14:00.603Z,928.33
2019-04-14T04:14:18.058Z,928.35
2019-04-14T04:14:35.631Z,928.35
2019-04-14T04:14:53.097Z,928.33
2019-04-14T04:15:12.491Z,928.35
2019-04-14T04:15:29.986Z,928.36
2019-04-14T04:15:47.565Z,928.41
2019-04-14T04:16:05.019Z,928.32
2019-04-14T04:16:24.421Z,928.35
2019-04-14T04:16:41.818Z,928.39
2019-04-14T04:16:59.428Z,928.37
2019-04-14T04:17:14.654Z,928.35
2019-04-14T04:17:34.016Z,928.36
2019-04-14T04:17:51.567Z,928.36
2019-04-14T04:18:09.056Z,928.38
2019-04-14T04:18:26.527Z,928.34
2019-04-14T04:19:14.905Z,928.35
2019-04-14T04:19:33.799Z,928.35
2019-04-14T04:19:51.381Z,928.37
2019-04-14T04:20:08.907Z,928.35
2019-04-14T04:20:26.355Z,928.33
2019-04-14T04:20:45.516Z,928.35
2019-04-14T04:21:02.845Z,928.4
2019-04-14T04:21:19.054Z,928.36
2019-04-14T04:21:35.536Z,928.36
2019-04-14T04:21:51.526Z,928.36
2019-04-14T04:22:08.507Z,928.34
2019-04-14T04:22:25.999Z,928.37
2019-04-14T04:22:45.581Z,928.39
2019-04-14T04:23:00.832Z,928.36
2019-04-14T04:23:18.381Z,928.34
2019-04-14T04:23:35.689Z,928.35
2019-04-14T04:23:53.210Z,928.36
2019-04-14T04:24:10.715Z,928.34
2019-04-14T04:24:31.851Z,928.34
2019-04-14T04:24:49.990Z,928.33
2019-04-14T04:25:07.298Z,928.35
2019-04-14T04:25:24.722Z,928.34
2019-04-14T04:25:42.151Z,928.35
2019-04-14T04:25:57.245Z,928.3
2019-04-14T04:26:12.559Z,928.32
2019-04-14T04:26:29.744Z,928.34
2019-04-14T04:26:45.098Z,928.31
2019-04-14T04:27:02.379Z,928.32
2019-04-14T04:27:20.023Z,928.3
2019-04-14T04:27:37.524Z,928.28
2019-04-14T04:27:56.693Z,928.31
2019-04-14T04:28:12.098Z,928.3
2019-04-14T04:28:27.824Z,928.28
2019-04-14T04:28:45.058Z,928.31
2019-04-14T04:29:02.723Z,928.26
2019-04-14T04:29:20.100Z,928.28
2019-04-14T04:29:37.608Z,928.29
2019-04-14T04:29:54.794Z,928.26
2019-04-14T04:30:12.350Z,928.26
2019-04-14T04:30:27.589Z,928.24
2019-04-14T04:30:42.662Z,928.26
2019-04-14T04:30:58.003Z,928.25
2019-04-14T04:31:15.609Z,928.25
2019-04-14T04:31:32.763Z,928.26
2019-04-14T04:31:50.383Z,928.26
2019-04-14T04:32:07.787Z,928.24
2019-04-14T04:32:25.117Z,928.25
2019-04-14T04:32:42.321Z,928.25
2019-04-14T04:32:59.988Z,928.25
2019-04-14T04:33:15.510Z,928.27
2019-04-14T04:33:34.749Z,928.3
2019-04-14T04:33:50.079Z,928.25
2019-04-14T04:34:07.574Z,928.28
2019-04-14T04:34:24.875Z,928.24
2019-04-14T04:34:40.219Z,928.26
2019-04-14T04:34:57.684Z,928.25
2019-04-14T04:35:15.287Z,928.27
2019-04-14T04:35:34.702Z,928.27
2019-04-14T04:35:52.177Z,928.25
2019-04-14T04:36:09.343Z,928.27
2019-04-14T04:36:24.804Z,928.25
2019-04-14T04:36:44.004Z,928.25
2019-04-14T04:36:59.552Z,928.25
2019-04-14T04:37:17.073Z,928.21
2019-04-14T04:37:34.123Z,928.23
2019-04-14T04:37:49.796Z,928.24
2019-04-14T04:38:07.242Z,928.24
2019-04-14T04:38:23.417Z,928.23
2019-04-14T04:38:41.849Z,928.23
2019-04-14T04:38:59.330Z,928.24
2019-04-14T04:39:17.065Z,928.25
2019-04-14T04:39:38.442Z,928.21
2019-04-14T04:39:58.188Z,928.23
2019-04-14T04:40:15.691Z,928.24
2019-04-14T04:40:31.165Z,928.25
2019-04-14T04:40:48.547Z,928.25
2019-04-14T04:41:05.851Z,928.26
2019-04-14T04:41:23.154Z,928.28
2019-04-14T04:41:40.685Z,928.25
2019-04-14T04:41:59.000Z,928.25
2019-04-14T04:42:17.549Z,928.26
2019-04-14T04:42:35.069Z,928.26
2019-04-14T04:42:52.576Z,928.28
2019-04-14T04:43:10.061Z,928.27
2019-04-14T04:43:25.444Z,928.29
2019-04-14T04:43:42.788Z,928.32
2019-04-14T04:43:59.285Z,928.33
2019-04-14T04:44:17.953Z,928.34
2019-04-14T04:44:35.540Z,928.35
2019-04-14T04:44:53.141Z,928.34
2019-04-14T04:45:12.530Z,928.38
2019-04-14T04:45:31.988Z,928.38
2019-04-14T04:45:49.431Z,928.39
2019-04-14T04:46:06.894Z,928.37
2019-04-14T04:46:24.362Z,928.42
2019-04-14T04:46:43.710Z,928.43
2019-04-14T04:47:01.167Z,928.44
2019-04-14T04:47:18.759Z,928.44
2019-04-14T04:47:36.230Z,928.43
2019-04-14T04:47:55.515Z,928.46
2019-04-14T04:48:13.030Z,928.47
2019-04-14T04:48:30.605Z,928.48
2019-04-14T04:49:09.462Z,928.48
2019-04-14T04:49:36.141Z,928.51
2019-04-14T04:49:55.391Z,928.51
2019-04-14T04:50:14.946Z,928.45
2019-04-14T04:50:32.375Z,928.5
2019-04-14T04:50:49.882Z,928.51
2019-04-14T04:51:09.253Z,928.53
2019-04-14T04:51:26.717Z,928.52
2019-04-14T04:51:44.241Z,928.54
2019-04-14T04:52:01.801Z,928.58
2019-04-14T04:52:23.575Z,928.53
2019-04-14T04:52:42.858Z,928.54
2019-04-14T04:53:00.364Z,928.55
2019-04-14T04:53:15.777Z,928.53
2019-04-14T04:53:34.058Z,928.54
2019-04-14T04:53:50.486Z,928.57
2019-04-14T04:54:05.953Z,928.57
2019-04-14T04:54:23.492Z,928.55
2019-04-14T04:54:40.468Z,928.55
2019-04-14T04:54:58.069Z,928.59
2019-04-14T04:55:15.511Z,928.53
2019-04-14T04:55:35.075Z,928.59
2019-04-14T04:55:50.353Z,928.52
2019-04-14T04:56:07.894Z,928.54
2019-04-14T04:56:23.219Z,928.57
2019-04-14T04:56:40.440Z,928.58
2019-04-14T04:56:57.998Z,928.53
2019-04-14T04:57:13.358Z,928.55
2019-04-14T04:57:32.485Z,928.54
2019-04-14T04:57:50.172Z,928.53
2019-04-14T04:58:07.762Z,928.53
2019-04-14T04:58:24.082Z,928.56
2019-04-14T04:58:41.283Z,928.55
2019-04-14T04:58:56.734Z,928.59
2019-04-14T04:59:14.674Z,928.58
2019-04-14T04:59:34.274Z,928.54
2019-04-14T04:59:51.685Z,928.56
2019-04-14T05:00:09.187Z,928.55
2019-04-14T05:00:26.618Z,928.55
2019-04-14T05:00:43.880Z,928.54
2019-04-14T05:01:07.705Z,928.56
2019-04-14T05:01:23.201Z,928.55
2019-04-14T05:01:38.641Z,928.57
2019-04-14T05:01:55.878Z,928.59
2019-04-14T05:02:13.353Z,928.58
2019-04-14T05:02:30.921Z,928.57
2019-04-14T05:02:48.246Z,928.56
2019-04-14T05:03:05.715Z,928.55
2019-04-14T05:03:23.225Z,928.56
2019-04-14T05:03:40.677Z,928.55
2019-04-14T05:03:58.881Z,928.53
2019-04-14T05:04:17.293Z,928.54
2019-04-14T05:04:34.998Z,928.55